Time;durP1;ratioP1;P1;durP2;ratioP2;P2;SDS_P1;SDS_P2;PMS_P1;PMS_P2;Temp;Humidity;BMP_temperature;BMP_pressure;BME280_temperature;BME280_humidity;BME280_pressure;Samples;Min_cycle;Max_cycle;Signal;HPM_P1;HPM_P2
2022/01/14 00:02:00;;;;;;;74.32;37.50;;;;;;;0.47;69.02;100647.63;5093788;28;20064;-47
2022/01/14 00:04:26;;;;;;;215.73;139.23;;;;;;;0.36;68.78;100652.56;5092409;28;20016;-48
2022/01/14 00:06:52;;;;;;;117.43;62.78;;;;;;;0.24;69.38;100648.09;5092349;28;20485;-48
2022/01/14 00:09:18;;;;;;;175.25;123.63;;;;;;;0.29;70.36;100648.69;5093633;28;20440;-48
2022/01/14 00:11:53;;;;;;;102.22;44.53;;;;;;;0.53;69.91;100649.06;5093544;28;20020;-47
2022/01/14 00:14:23;;;;;;;113.45;45.50;;;;;;;0.52;69.56;100655.94;5093617;28;20028;-49
2022/01/14 00:16:50;;;;;;;157.13;45.00;;;;;;;0.38;69.52;100655.91;5093500;28;20107;-49
2022/01/14 00:19:16;;;;;;;95.03;42.17;;;;;;;0.55;69.21;100654.97;5093428;28;20401;-48
2022/01/14 00:21:43;;;;;;;227.10;47.55;;;;;;;0.59;68.49;100659.84;5092055;28;20498;-48
2022/01/14 00:24:22;;;;;;;153.35;49.08;;;;;;;0.61;69.10;100653.78;5091978;28;20119;-49
2022/01/14 00:35:06;;;;;;;123.80;46.15;;;;;;;0.50;68.55;100656.97;5073158;28;20070;-48
2022/01/14 00:37:32;;;;;;;91.60;49.10;;;;;;;0.59;68.71;100662.44;5091813;28;20028;-47
2022/01/14 00:39:58;;;;;;;80.22;43.83;;;;;;;0.88;68.89;100657.34;5093062;28;20020;-48
2022/01/14 00:42:23;;;;;;;88.28;45.58;;;;;;;1.13;68.25;100653.34;5091640;28;20024;-48
2022/01/14 00:44:49;;;;;;;88.20;45.65;;;;;;;1.30;68.03;100647.97;5091668;28;20039;-48
2022/01/14 00:47:15;;;;;;;81.22;43.55;;;;;;;1.26;67.58;100646.50;5091513;28;20094;-49
2022/01/14 00:49:41;;;;;;;87.35;44.90;;;;;;;1.29;66.82;100659.25;5091573;28;20206;-47
2022/01/14 00:52:07;;;;;;;89.35;44.60;;;;;;;1.25;66.41;100656.91;5091405;28;20032;-49
2022/01/14 00:54:32;;;;;;;84.53;44.13;;;;;;;1.25;66.35;100647.44;5091489;28;20092;-49
2022/01/14 00:59:33;;;;;;;77.35;39.05;;;;;;;1.13;66.52;100646.41;5093028;28;20466;-51
2022/01/14 01:02:00;;;;;;;96.70;48.45;;;;;;;1.22;67.01;100650.19;5092623;28;20016;-50
2022/01/14 01:04:31;;;;;;;87.70;47.58;;;;;;;1.31;66.24;100653.97;5092583;28;20024;-48
2022/01/14 01:06:59;;;;;;;80.53;42.58;;;;;;;1.31;66.47;100649.66;5092595;28;20024;-50
2022/01/14 01:09:26;;;;;;;93.05;46.25;;;;;;;1.23;65.88;100656.19;5091144;28;20024;-50
2022/01/14 01:12:05;;;;;;;79.50;42.65;;;;;;;1.15;66.57;100646.31;5092397;28;20012;-48
2022/01/14 01:14:46;;;;;;;95.20;47.67;;;;;;;1.14;66.54;100652.41;5092499;28;20118;-48
2022/01/14 01:17:13;;;;;;;88.53;46.72;;;;;;;1.08;67.42;100645.00;5092421;28;20024;-49
2022/01/14 01:19:40;;;;;;;81.05;44.92;;;;;;;1.03;67.34;100650.47;5091011;28;20119;-48
2022/01/14 01:22:06;;;;;;;82.30;41.83;;;;;;;1.03;66.57;100647.88;5092273;28;20100;-48
2022/01/14 01:24:32;;;;;;;85.78;39.42;;;;;;;0.77;65.39;100655.38;5092279;28;20032;-49
2022/01/14 01:27:03;;;;;;;99.43;41.70;;;;;;;0.41;65.50;100655.72;5090900;28;20070;-49
2022/01/14 01:32:05;;;;;;;84.30;43.17;;;;;;;-0.01;66.69;100657.19;5092077;28;20486;-48
2022/01/14 01:34:31;;;;;;;87.03;39.22;;;;;;;-0.03;67.33;100651.28;5090749;28;20097;-50
2022/01/14 01:36:58;;;;;;;136.85;41.78;;;;;;;-0.17;67.45;100657.19;5090745;28;20028;-48
2022/01/14 01:39:27;;;;;;;139.77;41.90;;;;;;;-0.37;67.10;100657.44;5090712;28;20020;-49
2022/01/14 01:41:55;;;;;;;111.32;44.08;;;;;;;-0.46;68.33;100661.34;5091970;28;20028;-48
2022/01/14 01:44:23;;;;;;;85.97;40.90;;;;;;;-0.39;68.28;100657.50;5091971;28;20077;-47
2022/01/14 01:46:50;;;;;;;89.82;41.50;;;;;;;-0.30;68.76;100657.03;5090631;28;20085;-48
2022/01/14 01:49:19;;;;;;;91.40;41.17;;;;;;;-0.37;68.66;100658.25;5090611;28;20020;-48
2022/01/14 01:51:47;;;;;;;80.43;40.97;;;;;;;-0.39;68.93;100661.84;5091821;28;20135;-49
2022/01/14 01:54:14;;;;;;;92.60;44.45;;;;;;;-0.34;69.71;100660.69;5090565;28;20107;-49
2022/01/14 01:56:40;;;;;;;76.82;41.58;;;;;;;-0.31;69.61;100657.91;5090547;28;20509;-49
2022/01/14 01:59:06;;;;;;;79.88;40.55;;;;;;;-0.21;69.60;100661.69;5090486;28;20066;-50
2022/01/14 02:01:32;;;;;;;74.90;39.53;;;;;;;-0.09;68.94;100664.53;5090450;28;20027;-48
2022/01/14 02:03:58;;;;;;;80.40;41.33;;;;;;;-0.11;69.61;100653.44;5091851;28;20047;-49
2022/01/14 02:06:25;;;;;;;72.90;38.22;;;;;;;-0.26;68.83;100655.13;5091764;28;20445;-49
2022/01/14 02:08:51;;;;;;;86.13;43.80;;;;;;;-0.46;69.91;100648.44;5090409;28;20032;-48
2022/01/14 02:11:18;;;;;;;149.98;46.78;;;;;;;-0.76;70.13;100643.97;5091609;28;20036;-49
2022/01/14 02:13:45;;;;;;;146.93;48.58;;;;;;;-1.14;70.93;100639.00;5090402;28;20374;-50
2022/01/14 02:16:18;;;;;;;106.75;40.92;;;;;;;-1.23;71.39;100639.47;5090290;28;20066;-48
2022/01/14 02:26:54;;;;;;;80.50;37.17;;;;;;;-0.94;71.03;100627.69;5095683;28;20028;-49
2022/01/14 02:29:21;;;;;;;84.22;39.75;;;;;;;-0.92;70.71;100622.47;5094065;28;20497;-49
2022/01/14 02:31:48;;;;;;;105.43;38.28;;;;;;;-0.85;70.54;100623.81;5096053;28;20077;-47
2022/01/14 02:34:15;;;;;;;69.95;33.72;;;;;;;-0.85;70.32;100622.06;5094174;28;20027;-48
2022/01/14 02:36:43;;;;;;;81.10;36.75;;;;;;;-1.05;69.73;100617.09;5095430;28;20024;-47
2022/01/14 02:39:11;;;;;;;105.03;37.60;;;;;;;-1.35;69.42;100629.78;5094188;28;20020;-48
2022/01/14 02:41:39;;;;;;;65.93;34.10;;;;;;;-1.64;70.31;100639.75;5095382;28;20032;-47
2022/01/14 02:44:11;;;;;;;69.25;35.28;;;;;;;-1.58;70.43;100631.75;5095279;28;20035;-48
2022/01/14 02:46:42;;;;;;;58.08;31.45;;;;;;;-1.31;70.91;100629.56;5095281;28;20050;-48
2022/01/14 02:49:08;;;;;;;50.05;28.50;;;;;;;-1.08;70.88;100625.81;5095260;28;20032;-48
2022/01/14 02:51:34;;;;;;;256.15;39.38;;;;;;;-0.79;70.14;100623.47;5093760;28;20489;-49
2022/01/14 02:54:12;;;;;;;96.22;37.67;;;;;;;-0.85;69.20;100622.06;5095140;28;20478;-49
2022/01/14 02:56:42;;;;;;;84.63;35.97;;;;;;;-0.92;69.33;100617.31;5095100;28;20570;-49
2022/01/14 02:59:10;;;;;;;82.63;37.95;;;;;;;-0.87;69.88;100620.47;5095043;28;20436;-48
2022/01/14 03:01:37;;;;;;;71.75;39.15;;;;;;;-0.66;69.70;100618.53;5093628;28;20031;-48
2022/01/14 03:04:04;;;;;;;74.35;36.67;;;;;;;-0.66;69.11;100610.81;5094919;28;20024;-49
2022/01/14 03:06:30;;;;;;;66.82;36.70;;;;;;;-0.64;68.48;100603.81;5094901;28;20024;-49
2022/01/14 03:09:00;;;;;;;80.85;38.90;;;;;;;-0.74;68.92;100605.22;5093467;28;20020;-48
2022/01/14 03:11:34;;;;;;;63.25;35.20;;;;;;;-0.69;68.72;100604.03;5094695;28;20016;-48
2022/01/14 03:14:01;;;;;;;71.70;35.28;;;;;;;-0.65;68.90;100595.22;5094802;28;20023;-49
2022/01/14 03:16:28;;;;;;;73.18;37.13;;;;;;;-0.72;68.45;100600.81;5093386;28;20016;-49
2022/01/14 03:19:04;;;;;;;223.60;46.53;;;;;;;-0.69;69.04;100590.34;5094595;28;20032;-48
2022/01/14 03:21:36;;;;;;;140.95;46.58;;;;;;;-0.78;69.23;100583.91;5094697;28;20145;-48
2022/01/14 03:24:14;;;;;;;186.95;44.88;;;;;;;-0.58;69.48;100589.75;5094614;28;20085;-49
2022/01/14 03:26:40;;;;;;;86.57;39.00;;;;;;;-0.53;69.43;100598.09;5094553;28;20024;-47
2022/01/14 03:29:05;;;;;;;80.90;39.22;;;;;;;-0.55;68.96;100592.19;5093115;28;20028;-49
2022/01/14 03:31:31;;;;;;;86.30;41.90;;;;;;;-0.43;69.39;100581.19;5092760;28;20048;-49
2022/01/14 03:33:57;;;;;;;99.95;39.88;;;;;;;-0.30;68.86;100582.22;5093260;28;20078;-49
2022/01/14 03:36:23;;;;;;;94.15;39.20;;;;;;;-0.22;68.49;100582.63;5092946;28;20124;-48
2022/01/14 03:38:48;;;;;;;92.32;42.25;;;;;;;-0.17;68.37;100582.34;5094273;28;20019;-48
2022/01/14 03:41:14;;;;;;;85.32;41.67;;;;;;;-0.11;68.92;100583.78;5094202;28;20028;-49
2022/01/14 03:43:41;;;;;;;123.72;42.85;;;;;;;-0.13;68.99;100585.59;5094240;28;20016;-48
2022/01/14 03:46:07;;;;;;;102.53;45.55;;;;;;;-0.06;68.79;100580.03;5092811;28;20370;-48
2022/01/14 03:48:33;;;;;;;127.95;42.17;;;;;;;0.00;68.64;100576.28;5092758;28;20024;-48
2022/01/14 03:50:59;;;;;;;103.68;44.63;;;;;;;-0.05;68.79;100570.53;5092698;28;20047;-49
2022/01/14 03:53:25;;;;;;;117.20;43.60;;;;;;;0.04;67.57;100576.91;5092593;28;20031;-47
2022/01/14 03:55:50;;;;;;;86.50;41.08;;;;;;;-0.01;67.69;100577.19;5093938;28;20067;-49
2022/01/14 03:58:16;;;;;;;82.88;40.13;;;;;;;-0.14;67.82;100571.03;5093947;28;20027;-49
2022/01/14 04:00:42;;;;;;;81.93;41.65;;;;;;;-0.28;67.90;100564.91;5092478;28;20546;-47
2022/01/14 04:03:08;;;;;;;99.22;45.72;;;;;;;-0.39;68.73;100562.06;5093797;28;20039;-47
2022/01/14 04:05:35;;;;;;;91.43;45.95;;;;;;;-0.50;69.93;100572.16;5092757;28;20398;-47
2022/01/14 04:08:01;;;;;;;110.25;46.88;;;;;;;-0.45;70.21;100572.72;5092564;28;20102;-48
2022/01/14 04:10:27;;;;;;;103.00;44.08;;;;;;;-0.48;70.44;100571.13;5092399;28;20050;-48
2022/01/14 04:13:06;;;;;;;94.45;46.08;;;;;;;-0.46;70.96;100569.31;5093595;28;20050;-49
2022/01/14 04:15:42;;;;;;;105.57;43.55;;;;;;;-0.49;70.83;100572.03;5092333;28;20036;-49
2022/01/14 04:18:21;;;;;;;117.57;43.55;;;;;;;-0.58;70.29;100566.53;5092267;28;20115;-49
2022/01/14 04:20:49;;;;;;;129.50;45.05;;;;;;;-0.74;70.54;100567.38;5093514;28;20028;-48
2022/01/14 04:23:18;;;;;;;109.32;42.92;;;;;;;-0.89;70.74;100565.59;5092087;28;20028;-48
2022/01/14 04:25:45;;;;;;;97.80;42.35;;;;;;;-0.80;71.52;100575.44;5092116;28;20386;-48
2022/01/14 04:28:11;;;;;;;272.00;48.72;;;;;;;-0.74;70.64;100569.13;5092062;28;20031;-49
2022/01/14 04:30:37;;;;;;;124.38;46.08;;;;;;;-0.82;71.27;100566.97;5093107;28;20036;-48
2022/01/14 04:33:04;;;;;;;100.72;44.10;;;;;;;-0.79;70.94;100558.22;5091813;28;20578;-48
2022/01/14 04:35:31;;;;;;;98.10;43.60;;;;;;;-0.78;71.44;100552.16;5091870;28;20024;-47
2022/01/14 04:37:56;;;;;;;88.78;45.88;;;;;;;-0.85;71.22;100561.94;5093159;28;20072;-49
2022/01/14 04:40:22;;;;;;;179.45;46.17;;;;;;;-0.77;71.24;100559.78;5091749;28;20428;-48
2022/01/14 04:42:48;;;;;;;194.13;46.65;;;;;;;-0.75;71.07;100559.72;5093099;28;20028;-48
2022/01/14 04:45:28;;;;;;;129.55;46.33;;;;;;;-0.79;71.47;100566.78;5092706;28;20024;-51
2022/01/14 04:47:55;;;;;;;87.15;39.30;;;;;;;-0.76;71.16;100565.81;5092979;28;20506;-48
2022/01/14 04:50:23;;;;;;;121.07;42.88;;;;;;;-0.88;70.58;100564.69;5091557;28;20406;-49
2022/01/14 04:52:49;;;;;;;110.40;43.15;;;;;;;-1.03;69.96;100567.16;5092826;28;20016;-49
2022/01/14 04:55:18;;;;;;;96.18;40.38;;;;;;;-1.10;70.74;100572.72;5091437;28;20112;-48
2022/01/14 04:57:44;;;;;;;105.43;42.88;;;;;;;-1.09;71.25;100572.59;5092792;28;20013;-48
2022/01/14 05:00:25;;;;;;;116.95;43.13;;;;;;;-1.12;71.00;100571.97;5091353;28;20028;-49
2022/01/14 05:02:54;;;;;;;184.75;44.95;;;;;;;-1.22;70.85;100569.00;5092749;28;20039;-47
2022/01/14 05:05:24;;;;;;;103.00;42.47;;;;;;;-1.33;70.91;100566.13;5092626;28;20550;-49
2022/01/14 05:07:51;;;;;;;93.63;41.83;;;;;;;-1.42;71.41;100570.84;5091242;28;20397;-48
2022/01/14 05:10:33;;;;;;;96.93;41.85;;;;;;;-1.53;71.17;100568.00;5092486;28;20504;-48
2022/01/14 05:12:59;;;;;;;126.40;40.72;;;;;;;-1.59;71.20;100560.53;5092507;28;20027;-47
2022/01/14 05:15:25;;;;;;;104.20;39.75;;;;;;;-1.64;71.16;100565.09;5092421;28;20024;-48
2022/01/14 05:17:50;;;;;;;92.90;41.33;;;;;;;-1.68;70.74;100564.41;5091099;28;20032;-50
2022/01/14 05:20:18;;;;;;;112.43;41.63;;;;;;;-1.71;71.44;100563.72;5091081;28;20506;-47
2022/01/14 05:22:44;;;;;;;102.63;39.85;;;;;;;-1.76;71.39;100558.81;5091039;28;20476;-48
2022/01/14 05:25:12;;;;;;;94.55;42.92;;;;;;;-1.82;71.79;100543.69;5090919;28;20111;-48
2022/01/14 05:27:38;;;;;;;114.25;41.78;;;;;;;-1.83;71.54;100553.16;5092231;28;20034;-49
2022/01/14 05:30:06;;;;;;;226.85;48.15;;;;;;;-1.93;71.17;100551.94;5091930;28;20036;-49
2022/01/14 05:32:31;;;;;;;109.75;44.80;;;;;;;-1.96;72.46;100548.66;5090785;28;20027;-47
2022/01/14 05:34:57;;;;;;;101.45;41.47;;;;;;;-1.89;72.97;100561.16;5092106;28;20028;-47
2022/01/14 05:37:23;;;;;;;100.55;42.47;;;;;;;-1.83;72.28;100558.28;5090816;28;20107;-47
2022/01/14 05:39:48;;;;;;;100.15;39.70;;;;;;;-1.86;72.02;100561.00;5092063;28;20020;-49
2022/01/14 05:42:14;;;;;;;149.52;44.40;;;;;;;-1.95;72.25;100553.75;5091952;28;20020;-47
2022/01/14 05:44:41;;;;;;;123.38;47.75;;;;;;;-1.99;72.73;100569.38;5092037;28;20027;-48
2022/01/14 05:47:07;;;;;;;90.85;42.13;;;;;;;-2.04;72.81;100564.47;5091956;28;20035;-48
2022/01/14 05:49:33;;;;;;;89.45;40.88;;;;;;;-2.14;72.55;100568.38;5090607;28;20034;-48
2022/01/14 05:51:58;;;;;;;91.82;41.55;;;;;;;-2.28;72.70;100567.28;5090516;28;20024;-48
2022/01/14 05:54:24;;;;;;;103.90;44.28;;;;;;;-2.38;72.98;100565.22;5091883;28;20028;-48
2022/01/14 05:56:50;;;;;;;92.80;41.38;;;;;;;-2.29;73.49;100569.94;5091144;28;20028;-47
2022/01/14 05:59:17;;;;;;;101.80;42.17;;;;;;;-2.32;73.03;100552.06;5091863;28;20028;-48
2022/01/14 06:01:43;;;;;;;98.80;44.42;;;;;;;-2.25;73.33;100559.44;5090467;28;20062;-48
2022/01/14 06:04:09;;;;;;;87.32;43.35;;;;;;;-2.23;72.87;100565.34;5092078;28;20024;-47
2022/01/14 06:06:35;;;;;;;90.80;42.13;;;;;;;-2.29;72.86;100563.06;5091744;28;20077;-48
2022/01/14 06:09:02;;;;;;;86.40;42.78;;;;;;;-2.31;72.73;100570.00;5091717;28;20024;-47
2022/01/14 06:11:28;;;;;;;89.50;39.65;;;;;;;-2.30;73.38;100569.09;5090330;28;20032;-48
2022/01/14 06:13:54;;;;;;;89.53;40.58;;;;;;;-2.38;73.05;100573.75;5091660;28;20073;-48
2022/01/14 06:16:20;;;;;;;84.40;40.92;;;;;;;-2.40;73.08;100578.13;5090381;28;20051;-49
2022/01/14 06:18:46;;;;;;;94.65;41.30;;;;;;;-2.35;72.87;100583.91;5091666;28;20051;-49
2022/01/14 06:21:13;;;;;;;84.72;39.28;;;;;;;-2.33;72.97;100571.00;5090345;28;20020;-49
2022/01/14 06:23:39;;;;;;;111.22;44.42;;;;;;;-2.28;72.68;100569.03;5090371;28;20032;-50
2022/01/14 06:26:06;;;;;;;143.48;40.13;;;;;;;-2.25;72.84;100572.28;5090250;28;20565;-47
2022/01/14 06:28:32;;;;;;;109.55;41.13;;;;;;;-2.28;72.61;100564.72;5090254;28;20048;-48
2022/01/14 06:30:57;;;;;;;99.03;43.85;;;;;;;-2.29;73.04;100569.94;5091261;28;20513;-49
2022/01/14 06:33:23;;;;;;;90.63;43.67;;;;;;;-2.14;73.66;100576.09;5091507;28;20107;-48
2022/01/14 06:35:51;;;;;;;97.60;47.80;;;;;;;-1.91;72.98;100575.00;5091495;28;20486;-49
2022/01/14 06:38:19;;;;;;;83.13;38.00;;;;;;;-1.76;72.91;100573.44;5090233;28;20537;-47
2022/01/14 06:40:46;;;;;;;80.30;39.78;;;;;;;-1.84;71.84;100574.63;5090139;28;20039;-47
2022/01/14 06:43:14;;;;;;;82.28;41.20;;;;;;;-1.83;72.55;100585.78;5090153;28;20107;-48
2022/01/14 06:45:40;;;;;;;86.78;43.88;;;;;;;-1.67;72.55;100580.69;5091395;28;20016;-47
2022/01/14 06:48:05;;;;;;;82.90;39.55;;;;;;;-1.58;72.31;100576.84;5091431;28;20074;-47
2022/01/14 06:50:31;;;;;;;78.97;38.42;;;;;;;-1.59;72.07;100581.13;5091350;28;20383;-48
2022/01/14 06:52:57;;;;;;;78.40;38.65;;;;;;;-1.69;71.58;100585.06;5089905;28;20032;-47
2022/01/14 06:55:22;;;;;;;76.95;39.28;;;;;;;-1.76;71.71;100583.72;5090033;28;20032;-48
2022/01/14 06:57:48;;;;;;;80.25;40.10;;;;;;;-1.86;71.46;100589.31;5089986;28;20024;-47
2022/01/14 07:00:17;;;;;;;83.50;38.88;;;;;;;-1.95;71.61;100592.34;5091250;28;20028;-47
2022/01/14 07:02:42;;;;;;;81.60;38.45;;;;;;;-2.10;71.37;100582.75;5091282;28;20028;-47
2022/01/14 07:05:09;;;;;;;78.20;37.65;;;;;;;-2.23;70.78;100588.47;5091193;28;20020;-48
2022/01/14 07:07:36;;;;;;;84.00;38.50;;;;;;;-2.33;71.30;100584.69;5091270;28;20026;-49
2022/01/14 07:10:02;;;;;;;94.13;38.17;;;;;;;-2.42;70.97;100585.09;5094554;28;20028;-47
2022/01/14 07:12:34;;;;;;;109.35;38.53;;;;;;;-2.45;71.67;100592.97;5094799;28;20044;-48
2022/01/14 07:15:00;;;;;;;84.20;38.35;;;;;;;-2.47;71.54;100587.06;5094773;28;20039;-47
2022/01/14 07:17:27;;;;;;;82.85;42.38;;;;;;;-2.36;71.95;100596.84;5094727;28;20553;-48
2022/01/14 07:19:57;;;;;;;72.55;34.65;;;;;;;-2.23;71.54;100592.81;5093343;28;20024;-49
2022/01/14 07:22:23;;;;;;;68.82;34.88;;;;;;;-2.17;71.06;100597.66;5093320;28;20462;-48
2022/01/14 07:24:49;;;;;;;72.13;34.05;;;;;;;-1.99;71.53;100597.69;5094495;28;20578;-47
2022/01/14 07:27:16;;;;;;;78.13;37.67;;;;;;;-1.73;71.96;100592.13;5094528;28;20154;-48
2022/01/14 07:29:42;;;;;;;72.72;35.55;;;;;;;-1.69;70.51;100592.81;5092893;28;20527;-48
2022/01/14 07:32:08;;;;;;;82.55;38.22;;;;;;;-1.78;70.69;100585.53;5092974;28;20028;-47
2022/01/14 07:34:35;;;;;;;84.47;40.58;;;;;;;-1.86;70.65;100594.44;5094381;28;20394;-48
2022/01/14 07:37:01;;;;;;;70.13;34.40;;;;;;;-1.83;71.03;100596.91;5094313;28;20028;-48
2022/01/14 07:39:27;;;;;;;80.85;37.10;;;;;;;-1.91;70.75;100595.56;5094291;28;20020;-49
2022/01/14 07:41:54;;;;;;;77.00;34.25;;;;;;;-2.01;71.12;100595.19;5094219;28;20035;-47
2022/01/14 07:44:20;;;;;;;74.63;34.88;;;;;;;-2.12;70.46;100593.13;5094251;28;20027;-48
2022/01/14 07:46:50;;;;;;;71.97;35.67;;;;;;;-2.13;70.62;100603.47;5094165;28;20028;-48
2022/01/14 07:49:16;;;;;;;83.63;38.78;;;;;;;-2.07;71.39;100606.59;5094133;28;20021;-48
2022/01/14 07:51:42;;;;;;;80.20;37.83;;;;;;;-1.90;71.55;100599.81;5092581;28;20020;-49
2022/01/14 07:54:08;;;;;;;155.27;76.18;;;;;;;-1.71;71.43;100610.91;5094046;28;20085;-48
2022/01/14 07:56:45;;;;;;;114.60;40.08;;;;;;;-1.53;70.90;100611.75;5093971;28;20033;-48
2022/01/14 07:59:16;;;;;;;80.28;36.83;;;;;;;-1.39;70.38;100611.06;5092648;28;20032;-47
2022/01/14 08:01:44;;;;;;;82.30;36.50;;;;;;;-1.21;70.21;100614.47;5093825;28;20042;-48
2022/01/14 08:04:12;;;;;;;70.55;34.42;;;;;;;-0.96;69.93;100600.34;5093840;28;20104;-47
2022/01/14 08:06:44;;;;;;;72.43;36.42;;;;;;;-0.65;69.41;100600.38;5093763;28;20490;-47
2022/01/14 08:09:11;;;;;;;68.60;33.42;;;;;;;-0.43;68.81;100605.25;5092498;28;20032;-47
2022/01/14 08:11:36;;;;;;;62.40;35.25;;;;;;;-0.29;68.22;100601.09;5092323;28;20024;-47
2022/01/14 08:14:02;;;;;;;78.78;37.65;;;;;;;-0.15;67.98;100598.59;5092258;28;20081;-48
2022/01/14 08:16:28;;;;;;;71.93;39.03;;;;;;;-0.02;66.90;100589.25;5093818;28;20020;-48
2022/01/14 08:18:53;;;;;;;76.32;38.65;;;;;;;0.08;67.19;100583.56;5092147;28;20020;-47
2022/01/14 08:21:19;;;;;;;81.38;40.38;;;;;;;0.13;66.30;100584.97;5091531;28;20024;-48
2022/01/14 08:23:45;;;;;;;224.23;128.32;;;;;;;0.12;66.08;100595.38;5093572;28;20419;-48
2022/01/14 08:26:11;;;;;;;142.27;86.80;;;;;;;0.16;65.77;100583.97;5092031;28;20035;-49
2022/01/14 08:28:36;;;;;;;116.60;60.58;;;;;;;0.27;66.22;100589.38;5093355;28;20039;-48
2022/01/14 08:31:03;;;;;;;109.65;57.40;;;;;;;0.44;66.19;100600.47;5091692;28;20064;-47
2022/01/14 08:33:29;;;;;;;91.35;45.22;;;;;;;0.57;65.83;100597.09;5091900;28;20028;-48
2022/01/14 08:35:56;;;;;;;106.65;45.85;;;;;;;0.76;66.33;100596.03;5091962;28;20059;-48
2022/01/14 08:38:22;;;;;;;107.97;46.42;;;;;;;1.05;66.43;100594.31;5093143;28;20095;-47
2022/01/14 08:40:48;;;;;;;94.65;46.15;;;;;;;1.39;65.76;100593.09;5091753;28;20028;-48
2022/01/14 08:43:14;;;;;;;95.18;48.65;;;;;;;1.73;65.00;100597.91;5093072;28;20066;-49
2022/01/14 08:45:39;;;;;;;95.47;46.33;;;;;;;2.03;64.55;100591.75;5091650;28;20127;-49
2022/01/14 08:48:06;;;;;;;87.75;45.00;;;;;;;2.39;64.52;100586.78;5092953;28;20031;-48
2022/01/14 08:50:35;;;;;;;86.18;43.92;;;;;;;2.49;63.73;100581.81;5091602;28;20081;-47
2022/01/14 08:53:03;;;;;;;74.65;40.42;;;;;;;2.96;62.94;100577.81;5092836;28;20405;-47
2022/01/14 08:55:29;;;;;;;73.90;39.20;;;;;;;3.81;61.92;100569.31;5092844;28;20504;-46
2022/01/14 08:57:55;;;;;;;72.20;41.70;;;;;;;4.43;60.88;100576.06;5091444;28;20029;-48
2022/01/14 09:00:23;;;;;;;84.38;43.08;;;;;;;4.95;59.47;100569.53;5092761;28;20057;-47
2022/01/14 09:02:54;;;;;;;75.30;40.55;;;;;;;5.37;58.13;100574.13;5091441;28;20024;-47
2022/01/14 09:05:20;;;;;;;80.07;43.85;;;;;;;5.66;56.85;100579.66;5091352;28;20036;-48
2022/01/14 09:07:46;;;;;;;92.45;45.38;;;;;;;5.91;55.66;100573.28;5092646;28;20091;-47
2022/01/14 09:10:13;;;;;;;89.10;45.05;;;;;;;6.24;55.57;100575.94;5091189;28;20486;-47
2022/01/14 09:12:40;;;;;;;110.38;46.13;;;;;;;6.94;54.96;100574.44;5091153;28;20016;-47
2022/01/14 09:15:07;;;;;;;77.80;42.30;;;;;;;7.46;54.29;100567.34;5092552;28;20027;-47
2022/01/14 09:17:32;;;;;;;85.05;46.08;;;;;;;7.87;51.83;100567.28;5091196;28;20016;-48
2022/01/14 09:19:58;;;;;;;95.70;47.53;;;;;;;8.06;52.44;100564.69;5091085;28;20031;-49
2022/01/14 09:22:27;;;;;;;95.45;47.60;;;;;;;8.79;52.68;100567.69;5092325;28;20028;-49
2022/01/14 09:24:56;;;;;;;99.18;50.70;;;;;;;9.47;48.92;100555.25;5090986;28;20020;-48
2022/01/14 09:27:22;;;;;;;85.72;46.20;;;;;;;9.23;48.10;100559.22;5092301;28;20055;-48
2022/01/14 09:29:48;;;;;;;89.95;47.33;;;;;;;9.36;48.74;100561.53;5091972;28;20503;-47
2022/01/14 09:32:14;;;;;;;77.78;42.60;;;;;;;9.66;48.30;100549.91;5091186;28;20060;-48
2022/01/14 09:34:39;;;;;;;87.63;45.00;;;;;;;9.94;46.08;100562.94;5092165;28;20032;-48
2022/01/14 09:37:05;;;;;;;80.80;44.00;;;;;;;10.17;45.97;100561.50;5090808;28;20466;-49
2022/01/14 09:39:32;;;;;;;84.05;43.42;;;;;;;10.53;45.88;100564.13;5090788;28;20035;-48
2022/01/14 09:42:00;;;;;;;70.90;43.67;;;;;;;10.96;45.36;100572.09;5092054;28;20460;-48
2022/01/14 09:44:26;;;;;;;68.95;45.17;;;;;;;10.90;42.95;100565.66;5092074;28;20020;-48
2022/01/14 09:46:53;;;;;;;80.28;42.33;;;;;;;10.61;44.48;100576.47;5090671;28;20110;-48
2022/01/14 09:49:19;;;;;;;69.90;41.75;;;;;;;10.94;45.41;100574.03;5092000;28;20016;-49
2022/01/14 09:51:46;;;;;;;58.97;39.30;;;;;;;11.36;44.79;100573.25;5091885;28;20023;-48
2022/01/14 09:54:12;;;;;;;61.53;40.17;;;;;;;11.81;44.50;100566.78;5091929;28;20493;-48
2022/01/14 09:56:39;;;;;;;64.10;41.22;;;;;;;12.16;43.67;100562.28;5090576;28;20025;-48
2022/01/14 09:59:06;;;;;;;55.85;38.95;;;;;;;12.76;43.32;100563.69;5091807;28;20028;-50
2022/01/14 10:01:41;;;;;;;62.50;41.17;;;;;;;13.17;41.55;100551.19;5091839;28;20020;-50
2022/01/14 10:04:08;;;;;;;61.70;39.88;;;;;;;13.53;41.47;100555.19;5090540;28;20024;-49
2022/01/14 10:06:41;;;;;;;55.03;37.88;;;;;;;13.76;39.41;100557.84;5091760;28;20603;-49
2022/01/14 10:09:22;;;;;;;55.90;38.90;;;;;;;14.02;37.98;100556.69;5091775;28;20421;-49
2022/01/14 10:12:03;;;;;;;57.58;40.10;;;;;;;14.28;37.89;100553.69;5091762;28;20024;-49
2022/01/14 10:14:30;;;;;;;54.47;38.58;;;;;;;14.40;38.80;100557.53;5091745;28;20048;-48
2022/01/14 10:16:58;;;;;;;57.25;38.72;;;;;;;14.71;37.41;100551.34;5090384;28;20021;-50
2022/01/14 10:19:27;;;;;;;58.97;40.85;;;;;;;14.31;34.54;100554.16;5091681;28;20032;-49
2022/01/14 10:21:54;;;;;;;54.45;39.65;;;;;;;13.31;36.50;100547.06;5091622;28;20024;-49
2022/01/14 10:24:21;;;;;;;54.47;37.90;;;;;;;13.17;37.50;100550.38;5090321;28;20397;-49
2022/01/14 10:26:56;;;;;;;54.05;37.83;;;;;;;13.48;36.47;100546.97;5091585;28;20016;-49
2022/01/14 10:29:40;;;;;;;57.97;38.67;;;;;;;13.62;35.57;100543.59;5090107;28;20032;-49
2022/01/14 10:32:08;;;;;;;59.17;40.83;;;;;;;13.03;36.96;100543.19;5091553;28;20072;-49
2022/01/14 10:34:35;;;;;;;53.60;39.10;;;;;;;13.32;37.16;100538.16;5090229;28;20060;-48
2022/01/14 10:37:13;;;;;;;56.28;39.42;;;;;;;13.69;36.44;100528.72;5091507;28;20028;-48
2022/01/14 10:39:48;;;;;;;53.90;38.85;;;;;;;13.86;35.62;100518.84;5090247;28;20089;-49
2022/01/14 10:42:23;;;;;;;55.63;39.75;;;;;;;13.98;35.51;100517.47;5091554;28;20127;-49
2022/01/14 10:44:49;;;;;;;58.42;41.63;;;;;;;13.83;36.43;100515.75;5093453;28;20548;-50
2022/01/14 10:47:18;;;;;;;52.50;38.00;;;;;;;13.76;36.11;100513.00;5095296;28;20494;-50
2022/01/14 10:49:49;;;;;;;53.40;39.45;;;;;;;13.93;36.05;100517.16;5093885;28;20027;-50
2022/01/14 10:52:22;;;;;;;50.22;39.83;;;;;;;14.09;35.64;100513.56;5095147;28;20490;-49
2022/01/14 10:54:57;;;;;;;56.10;39.65;;;;;;;13.85;35.36;100511.13;5095208;28;20020;-49
2022/01/14 10:57:25;;;;;;;49.58;38.40;;;;;;;13.58;35.32;100506.19;5093838;28;20039;-49
2022/01/14 10:59:53;;;;;;;46.67;36.80;;;;;;;13.33;35.10;100505.50;5095053;28;20046;-50
2022/01/14 11:02:32;;;;;;;48.35;36.90;;;;;;;13.07;35.50;100499.69;5094988;28;20027;-50
2022/01/14 11:05:19;;;;;;;49.55;36.80;;;;;;;13.06;35.99;100496.25;5093642;28;20532;-49
2022/01/14 11:07:47;;;;;;;44.65;36.50;;;;;;;13.28;36.25;100493.81;5093644;28;20038;-49
2022/01/14 11:10:26;;;;;;;47.20;36.50;;;;;;;13.90;35.57;100488.47;5094909;28;20567;-49
2022/01/14 11:12:54;;;;;;;47.80;37.55;;;;;;;13.84;35.67;100481.25;5093553;28;20386;-49
2022/01/14 11:15:23;;;;;;;49.33;37.67;;;;;;;14.13;35.27;100479.72;5094783;28;20024;-50
2022/01/14 11:17:52;;;;;;;48.47;37.88;;;;;;;14.45;34.42;100475.94;5094768;28;20039;-50
2022/01/14 11:20:25;;;;;;;52.75;39.78;;;;;;;14.54;33.93;100476.66;5094959;28;20032;-51
2022/01/14 11:25:38;;;;;;;;;;;;;;;13.71;34.52;100466.03;5095078;28;20031;-49
2022/01/14 11:28:04;;;;;;;49.25;37.33;;;;;;;13.23;35.13;100460.06;5094845;28;19994;-50
2022/01/14 11:30:40;;;;;;;47.65;35.17;;;;;;;13.07;35.36;100457.50;5092878;28;20040;-50
2022/01/14 11:33:07;;;;;;;48.25;36.30;;;;;;;12.88;35.32;100453.50;5094430;28;20024;-50
2022/01/14 11:35:37;;;;;;;51.50;38.25;;;;;;;12.81;36.06;100452.53;5093042;28;20028;-49
2022/01/14 11:38:03;;;;;;;48.70;37.80;;;;;;;12.70;34.96;100446.66;5094332;28;20126;-49